sensor_id;sensor_type;location;lat;lon;timestamp;pressure;altitude;pressure_sealevel;temperature;humidity
14383;BME280;7275;50.328;8.720;2022-11-21T00:00:59;98534.19;;;12.42;52.73
14383;BME280;7275;50.328;8.720;2022-11-21T00:03:28;98529.66;;;12.44;52.84
14383;BME280;7275;50.328;8.720;2022-11-21T00:05:56;98529.66;;;12.44;52.85
14383;BME280;7275;50.328;8.720;2022-11-21T00:08:23;98529.66;;;12.44;53.04
14383;BME280;7275;50.328;8.720;2022-11-21T00:10:51;98523.47;;;12.44;52.63
14383;BME280;7275;50.328;8.720;2022-11-21T00:13:19;98525.28;;;12.43;52.53
14383;BME280;7275;50.328;8.720;2022-11-21T00:15:47;98535.88;;;12.43;52.54
14383;BME280;7275;50.328;8.720;2022-11-21T00:18:14;98537.69;;;12.43;52.58
14383;BME280;7275;50.328;8.720;2022-11-21T00:20:43;98527.94;;;12.43;52.26
14383;BME280;7275;50.328;8.720;2022-11-21T00:23:11;98527.94;;;12.43;52.24
14383;BME280;7275;50.328;8.720;2022-11-21T00:25:38;98521.69;;;12.44;52.45
14383;BME280;7275;50.328;8.720;2022-11-21T00:28:06;98534.00;;;12.45;52.24
14383;BME280;7275;50.328;8.720;2022-11-21T00:30:33;98547.25;;;12.45;52.00
14383;BME280;7275;50.328;8.720;2022-11-21T00:33:02;98511.00;;;12.46;52.25
14383;BME280;7275;50.328;8.720;2022-11-21T00:35:30;98532.13;;;12.47;51.99
14383;BME280;7275;50.328;8.720;2022-11-21T00:37:59;98505.50;;;12.49;51.92
14383;BME280;7275;50.328;8.720;2022-11-21T00:40:27;98520.44;;;12.50;52.05
14383;BME280;7275;50.328;8.720;2022-11-21T00:42:54;98514.09;;;12.52;52.01
14383;BME280;7275;50.328;8.720;2022-11-21T00:45:22;98540.50;;;12.54;51.86
14383;BME280;7275;50.328;8.720;2022-11-21T00:47:50;98522.69;;;12.56;51.93
14383;BME280;7275;50.328;8.720;2022-11-21T00:50:17;98519.97;;;12.57;51.92
14383;BME280;7275;50.328;8.720;2022-11-21T00:52:45;98517.22;;;12.59;51.60
14383;BME280;7275;50.328;8.720;2022-11-21T00:55:14;98517.09;;;12.60;51.91
14383;BME280;7275;50.328;8.720;2022-11-21T00:57:41;98499.41;;;12.61;51.54
14383;BME280;7275;50.328;8.720;2022-11-21T01:00:10;98516.91;;;12.63;51.49
14383;BME280;7275;50.328;8.720;2022-11-21T01:02:38;98519.47;;;12.65;51.44
14383;BME280;7275;50.328;8.720;2022-11-21T01:05:06;98503.56;;;12.65;51.43
14383;BME280;7275;50.328;8.720;2022-11-21T01:07:33;98522.97;;;12.65;51.48
14383;BME280;7275;50.328;8.720;2022-11-21T01:10:01;98514.16;;;12.65;51.56
14383;BME280;7275;50.328;8.720;2022-11-21T01:12:30;98509.50;;;12.68;51.41
14383;BME280;7275;50.328;8.720;2022-11-21T01:14:58;98515.56;;;12.70;51.50
14383;BME280;7275;50.328;8.720;2022-11-21T01:17:25;98524.25;;;12.72;51.37
14383;BME280;7275;50.328;8.720;2022-11-21T01:19:53;98520.69;;;12.73;51.18
14383;BME280;7275;50.328;8.720;2022-11-21T01:22:20;98514.31;;;12.76;51.46
14383;BME280;7275;50.328;8.720;2022-11-21T01:24:48;98512.63;;;12.75;51.28
14383;BME280;7275;50.328;8.720;2022-11-21T01:27:15;98512.53;;;12.76;51.25
14383;BME280;7275;50.328;8.720;2022-11-21T01:29:44;98501.06;;;12.76;51.19
14383;BME280;7275;50.328;8.720;2022-11-21T01:32:12;98506.47;;;12.74;51.32
14383;BME280;7275;50.328;8.720;2022-11-21T01:34:39;98505.63;;;12.74;51.32
14383;BME280;7275;50.328;8.720;2022-11-21T01:37:07;98516.31;;;12.72;51.26
14383;BME280;7275;50.328;8.720;2022-11-21T01:39:34;98507.41;;;12.73;51.47
14383;BME280;7275;50.328;8.720;2022-11-21T01:42:02;98497.66;;;12.74;51.50
14383;BME280;7275;50.328;8.720;2022-11-21T01:47:23;98497.75;;;12.72;51.26
14383;BME280;7275;50.328;8.720;2022-11-21T01:49:51;98485.47;;;12.71;51.35
14383;BME280;7275;50.328;8.720;2022-11-21T01:52:21;98496.06;;;12.71;51.38
14383;BME280;7275;50.328;8.720;2022-11-21T01:54:52;98496.06;;;12.71;51.25
14383;BME280;7275;50.328;8.720;2022-11-21T01:57:24;98496.81;;;12.73;51.28
14383;BME280;7275;50.328;8.720;2022-11-21T01:59:57;98482.69;;;12.73;51.09
14383;BME280;7275;50.328;8.720;2022-11-21T02:02:29;98506.47;;;12.74;51.29
14383;BME280;7275;50.328;8.720;2022-11-21T02:04:59;98490.56;;;12.74;51.08
14383;BME280;7275;50.328;8.720;2022-11-21T02:07:29;98488.66;;;12.76;51.01
14383;BME280;7275;50.328;8.720;2022-11-21T02:10:01;98486.03;;;12.76;51.30
14383;BME280;7275;50.328;8.720;2022-11-21T02:12:31;98500.03;;;12.78;51.25
14383;BME280;7275;50.328;8.720;2022-11-21T02:15:00;98488.44;;;12.79;51.34
14383;BME280;7275;50.328;8.720;2022-11-21T02:17:30;98502.56;;;12.80;51.19
14383;BME280;7275;50.328;8.720;2022-11-21T02:19:59;98499.81;;;12.81;51.00
14383;BME280;7275;50.328;8.720;2022-11-21T02:22:34;98495.34;;;12.82;50.80
14383;BME280;7275;50.328;8.720;2022-11-21T02:25:07;98505.00;;;12.83;50.95
14383;BME280;7275;50.328;8.720;2022-11-21T02:27:36;98503.09;;;12.85;50.99
14383;BME280;7275;50.328;8.720;2022-11-21T02:30:07;98496.84;;;12.86;51.07
14383;BME280;7275;50.328;8.720;2022-11-21T02:32:37;98483.50;;;12.88;50.87
14383;BME280;7275;50.328;8.720;2022-11-21T02:35:05;98498.47;;;12.89;50.93
14383;BME280;7275;50.328;8.720;2022-11-21T02:37:35;98503.66;;;12.90;50.75
14383;BME280;7275;50.328;8.720;2022-11-21T02:40:08;98503.66;;;12.90;50.68
14383;BME280;7275;50.328;8.720;2022-11-21T02:42:38;98516.06;;;12.90;50.79
14383;BME280;7275;50.328;8.720;2022-11-21T02:45:13;98519.47;;;12.92;50.87
14383;BME280;7275;50.328;8.720;2022-11-21T02:47:43;98522.97;;;12.92;50.73
14383;BME280;7275;50.328;8.720;2022-11-21T02:50:13;98531.03;;;12.91;50.69
14383;BME280;7275;50.328;8.720;2022-11-21T02:52:41;98528.38;;;12.91;50.66
14383;BME280;7275;50.328;8.720;2022-11-21T02:55:10;98527.41;;;12.92;50.83
14383;BME280;7275;50.328;8.720;2022-11-21T02:57:40;98537.09;;;12.93;50.80
14383;BME280;7275;50.328;8.720;2022-11-21T03:00:09;98540.69;;;12.92;50.68
14383;BME280;7275;50.328;8.720;2022-11-21T03:02:37;98534.44;;;12.93;50.71
14383;BME280;7275;50.328;8.720;2022-11-21T03:05:07;98549.31;;;12.95;50.73
14383;BME280;7275;50.328;8.720;2022-11-21T03:07:35;98545.69;;;12.96;50.80
14383;BME280;7275;50.328;8.720;2022-11-21T03:10:03;98545.50;;;12.99;50.82
14383;BME280;7275;50.328;8.720;2022-11-21T03:12:34;98542.75;;;13.01;50.57
14383;BME280;7275;50.328;8.720;2022-11-21T03:15:03;98533.81;;;13.02;50.48
14383;BME280;7275;50.328;8.720;2022-11-21T03:17:30;98540.09;;;13.01;50.44
14383;BME280;7275;50.328;8.720;2022-11-21T03:19:58;98550.88;;;12.98;50.44
14383;BME280;7275;50.328;8.720;2022-11-21T03:22:25;98550.06;;;12.97;50.52
14383;BME280;7275;50.328;8.720;2022-11-21T03:24:53;98560.75;;;12.96;50.59
14383;BME280;7275;50.328;8.720;2022-11-21T03:27:20;98549.31;;;12.95;50.58
14383;BME280;7275;50.328;8.720;2022-11-21T03:29:49;98553.13;;;12.91;50.56
14383;BME280;7275;50.328;8.720;2022-11-21T03:32:17;98554.06;;;12.90;50.55
14383;BME280;7275;50.328;8.720;2022-11-21T03:34:44;98557.56;;;12.91;50.60
14383;BME280;7275;50.328;8.720;2022-11-21T03:37:12;98563.81;;;12.90;50.38
14383;BME280;7275;50.328;8.720;2022-11-21T03:39:39;98570.06;;;12.89;50.51
14383;BME280;7275;50.328;8.720;2022-11-21T03:42:07;98561.16;;;12.90;50.54
14383;BME280;7275;50.328;8.720;2022-11-21T03:44:34;98566.47;;;12.90;50.67
14383;BME280;7275;50.328;8.720;2022-11-21T03:47:03;98566.38;;;12.91;50.53
14383;BME280;7275;50.328;8.720;2022-11-21T03:49:31;98565.41;;;12.92;50.55
14383;BME280;7275;50.328;8.720;2022-11-21T03:51:59;98570.72;;;12.92;50.66
14383;BME280;7275;50.328;8.720;2022-11-21T03:54:26;98572.44;;;12.93;50.24
14383;BME280;7275;50.328;8.720;2022-11-21T03:56:54;98575.91;;;12.94;50.51
14383;BME280;7275;50.328;8.720;2022-11-21T03:59:22;98572.22;;;12.96;50.68
14383;BME280;7275;50.328;8.720;2022-11-21T04:01:49;98576.59;;;12.97;50.49
14383;BME280;7275;50.328;8.720;2022-11-21T04:04:18;98589.75;;;12.99;50.57
14383;BME280;7275;50.328;8.720;2022-11-21T04:06:46;98572.84;;;13.00;50.59
14383;BME280;7275;50.328;8.720;2022-11-21T04:09:13;98581.69;;;13.00;50.56
14383;BME280;7275;50.328;8.720;2022-11-21T04:11:41;98586.06;;;13.01;50.55
14383;BME280;7275;50.328;8.720;2022-11-21T04:14:09;98574.47;;;13.02;50.61
14383;BME280;7275;50.328;8.720;2022-11-21T04:16:36;98583.22;;;13.04;50.58
14383;BME280;7275;50.328;8.720;2022-11-21T04:19:04;98584.16;;;13.03;50.64
14383;BME280;7275;50.328;8.720;2022-11-21T04:21:33;98577.22;;;13.01;50.63
14383;BME280;7275;50.328;8.720;2022-11-21T04:24:00;98579.88;;;13.01;50.51
14383;BME280;7275;50.328;8.720;2022-11-21T04:26:28;98585.19;;;13.01;50.67
14383;BME280;7275;50.328;8.720;2022-11-21T04:28:56;98580.75;;;13.01;50.68
14383;BME280;7275;50.328;8.720;2022-11-21T04:31:23;98572.84;;;13.00;50.77
14383;BME280;7275;50.328;8.720;2022-11-21T04:33:51;98579.13;;;12.99;50.55
14383;BME280;7275;50.328;8.720;2022-11-21T04:36:19;98583.69;;;12.97;50.70
14383;BME280;7275;50.328;8.720;2022-11-21T04:38:47;98583.78;;;12.95;50.61
14383;BME280;7275;50.328;8.720;2022-11-21T04:41:15;98577.81;;;12.92;50.68
14383;BME280;7275;50.328;8.720;2022-11-21T04:43:42;98584.94;;;12.91;50.90
14383;BME280;7275;50.328;8.720;2022-11-21T04:46:10;98582.28;;;12.91;50.84
14383;BME280;7275;50.328;8.720;2022-11-21T04:48:37;98576.13;;;12.91;50.89
14383;BME280;7275;50.328;8.720;2022-11-21T04:51:05;98581.44;;;12.91;50.69
14383;BME280;7275;50.328;8.720;2022-11-21T04:53:32;98582.28;;;12.91;50.91
14383;BME280;7275;50.328;8.720;2022-11-21T04:56:09;98586.63;;;12.92;50.76
14383;BME280;7275;50.328;8.720;2022-11-21T04:58:39;98581.31;;;12.92;51.06
14383;BME280;7275;50.328;8.720;2022-11-21T05:01:07;98587.28;;;12.96;50.79
14383;BME280;7275;50.328;8.720;2022-11-21T05:03:35;98589.94;;;12.96;50.60
14383;BME280;7275;50.328;8.720;2022-11-21T05:06:03;98591.75;;;12.95;50.83
14383;BME280;7275;50.328;8.720;2022-11-21T05:08:31;98589.28;;;12.92;50.71
14383;BME280;7275;50.328;8.720;2022-11-21T05:10:58;98581.53;;;12.89;50.71
14383;BME280;7275;50.328;8.720;2022-11-21T05:13:45;98591.47;;;12.85;50.51
14383;BME280;7275;50.328;8.720;2022-11-21T05:16:12;98596.03;;;12.83;50.66
14383;BME280;7275;50.328;8.720;2022-11-21T05:18:40;98593.47;;;12.82;50.73
14383;BME280;7275;50.328;8.720;2022-11-21T05:21:07;98584.03;;;12.78;50.73
14383;BME280;7275;50.328;8.720;2022-11-21T05:23:35;98595.56;;;12.77;50.49
14383;BME280;7275;50.328;8.720;2022-11-21T05:26:02;98591.34;;;12.74;50.59
14383;BME280;7275;50.328;8.720;2022-11-21T05:28:30;98594.91;;;12.73;50.63
14383;BME280;7275;50.328;8.720;2022-11-21T05:30:59;98591.41;;;12.73;50.69
14383;BME280;7275;50.328;8.720;2022-11-21T05:33:26;98588.75;;;12.73;50.91
14383;BME280;7275;50.328;8.720;2022-11-21T05:35:54;98597.47;;;12.75;50.65
14383;BME280;7275;50.328;8.720;2022-11-21T05:38:21;98592.25;;;12.73;50.87
14383;BME280;7275;50.328;8.720;2022-11-21T05:40:50;98590.47;;;12.74;50.77
14383;BME280;7275;50.328;8.720;2022-11-21T05:43:18;98596.72;;;12.73;51.02
14383;BME280;7275;50.328;8.720;2022-11-21T05:46:04;98589.78;;;12.70;51.09
14383;BME280;7275;50.328;8.720;2022-11-21T05:48:31;98589.78;;;12.70;50.72
14383;BME280;7275;50.328;8.720;2022-11-21T05:51:02;98589.72;;;12.72;51.00
14383;BME280;7275;50.328;8.720;2022-11-21T05:53:29;98592.38;;;12.72;50.84
14383;BME280;7275;50.328;8.720;2022-11-21T05:56:01;98593.31;;;12.71;50.83
14383;BME280;7275;50.328;8.720;2022-11-21T05:58:29;98603.06;;;12.70;51.04
14383;BME280;7275;50.328;8.720;2022-11-21T06:00:57;98595.09;;;12.70;50.92
14383;BME280;7275;50.328;8.720;2022-11-21T06:03:28;98583.84;;;12.67;51.15
14383;BME280;7275;50.328;8.720;2022-11-21T06:06:04;98577.78;;;12.65;51.11
14383;BME280;7275;50.328;8.720;2022-11-21T06:08:33;98575.44;;;12.60;50.94
14383;BME280;7275;50.328;8.720;2022-11-21T06:11:02;98572.88;;;12.59;50.84
14383;BME280;7275;50.328;8.720;2022-11-21T06:13:30;98558.88;;;12.57;50.91
14383;BME280;7275;50.328;8.720;2022-11-21T06:16:00;98561.53;;;12.57;50.97
14383;BME280;7275;50.328;8.720;2022-11-21T06:18:31;98573.28;;;12.53;50.88
14383;BME280;7275;50.328;8.720;2022-11-21T06:21:00;98588.41;;;12.51;51.00
14383;BME280;7275;50.328;8.720;2022-11-21T06:23:28;98585.94;;;12.48;50.87
14383;BME280;7275;50.328;8.720;2022-11-21T06:25:56;98596.56;;;12.48;50.75
14383;BME280;7275;50.328;8.720;2022-11-21T06:28:24;98606.31;;;12.47;51.08
14383;BME280;7275;50.328;8.720;2022-11-21T06:30:52;98610.94;;;12.44;50.84
14383;BME280;7275;50.328;8.720;2022-11-21T06:33:20;98610.28;;;12.40;50.75
14383;BME280;7275;50.328;8.720;2022-11-21T06:35:49;98608.78;;;12.36;50.77
14383;BME280;7275;50.328;8.720;2022-11-21T06:38:16;98602.16;;;12.29;50.83
14383;BME280;7275;50.328;8.720;2022-11-21T06:40:44;98603.38;;;12.24;50.69
14383;BME280;7275;50.328;8.720;2022-11-21T06:43:12;98597.72;;;12.16;51.11
14383;BME280;7275;50.328;8.720;2022-11-21T06:45:40;98605.19;;;12.09;51.21
14383;BME280;7275;50.328;8.720;2022-11-21T06:48:07;98607.34;;;12.02;51.16
14383;BME280;7275;50.328;8.720;2022-11-21T06:50:35;98607.63;;;11.98;51.15
14383;BME280;7275;50.328;8.720;2022-11-21T06:53:05;98608.84;;;11.92;51.49
14383;BME280;7275;50.328;8.720;2022-11-21T06:55:32;98623.13;;;11.90;51.64
14383;BME280;7275;50.328;8.720;2022-11-21T06:58:00;98622.47;;;11.86;51.70
14383;BME280;7275;50.328;8.720;2022-11-21T07:00:28;98618.94;;;11.86;51.48
14383;BME280;7275;50.328;8.720;2022-11-21T07:02:59;98625.94;;;11.87;51.68
14383;BME280;7275;50.328;8.720;2022-11-21T07:05:29;98632.94;;;11.88;51.62
14383;BME280;7275;50.328;8.720;2022-11-21T07:07:57;98633.59;;;11.91;51.60
14383;BME280;7275;50.328;8.720;2022-11-21T07:10:27;98633.59;;;11.91;51.65
14383;BME280;7275;50.328;8.720;2022-11-21T07:12:56;98631.81;;;11.92;51.57
14383;BME280;7275;50.328;8.720;2022-11-21T07:15:41;98635.31;;;11.92;51.80
14383;BME280;7275;50.328;8.720;2022-11-21T07:18:10;98636.75;;;11.98;51.96
14383;BME280;7275;50.328;8.720;2022-11-21T07:20:37;98636.31;;;12.06;51.98
14383;BME280;7275;50.328;8.720;2022-11-21T07:23:05;98644.53;;;12.15;51.86
14383;BME280;7275;50.328;8.720;2022-11-21T07:25:34;98638.88;;;12.21;51.74
14383;BME280;7275;50.328;8.720;2022-11-21T07:28:03;98639.44;;;12.26;51.58
14383;BME280;7275;50.328;8.720;2022-11-21T07:30:30;98640.09;;;12.30;51.62
14383;BME280;7275;50.328;8.720;2022-11-21T07:32:59;98644.25;;;12.34;51.71
14383;BME280;7275;50.328;8.720;2022-11-21T07:35:28;98632.63;;;12.36;51.57
14383;BME280;7275;50.328;8.720;2022-11-21T07:37:55;98637.72;;;12.39;51.43
14383;BME280;7275;50.328;8.720;2022-11-21T07:40:23;98645.50;;;12.42;51.50
14383;BME280;7275;50.328;8.720;2022-11-21T07:42:52;98651.38;;;12.47;51.31
14383;BME280;7275;50.328;8.720;2022-11-21T07:45:20;98651.00;;;12.53;51.46
14383;BME280;7275;50.328;8.720;2022-11-21T07:47:56;98656.78;;;12.60;51.25
14383;BME280;7275;50.328;8.720;2022-11-21T07:50:23;98651.91;;;12.66;51.29
14383;BME280;7275;50.328;8.720;2022-11-21T07:52:56;98655.03;;;12.73;51.10
14383;BME280;7275;50.328;8.720;2022-11-21T07:55:24;98659.03;;;12.80;51.14
14383;BME280;7275;50.328;8.720;2022-11-21T07:58:00;98657.03;;;12.83;51.18
14383;BME280;7275;50.328;8.720;2022-11-21T08:00:29;98643.66;;;12.85;50.98
14383;BME280;7275;50.328;8.720;2022-11-21T08:02:57;98645.28;;;12.88;51.17
14383;BME280;7275;50.328;8.720;2022-11-21T08:05:24;98644.22;;;12.90;51.19
14383;BME280;7275;50.328;8.720;2022-11-21T08:07:52;98640.53;;;12.93;51.12
14383;BME280;7275;50.328;8.720;2022-11-21T08:10:19;98647.25;;;12.98;51.23
14383;BME280;7275;50.328;8.720;2022-11-21T08:12:47;98649.78;;;13.00;50.97
14383;BME280;7275;50.328;8.720;2022-11-21T08:15:16;98643.38;;;13.04;51.15
14383;BME280;7275;50.328;8.720;2022-11-21T08:17:43;98644.03;;;13.07;51.18
14383;BME280;7275;50.328;8.720;2022-11-21T08:20:11;98645.44;;;13.13;51.14
14383;BME280;7275;50.328;8.720;2022-11-21T08:22:39;98644.41;;;13.15;51.07
14383;BME280;7275;50.328;8.720;2022-11-21T08:25:08;98643.25;;;13.19;51.05
14383;BME280;7275;50.328;8.720;2022-11-21T08:27:37;98636.78;;;13.23;50.96
14383;BME280;7275;50.328;8.720;2022-11-21T08:30:06;98635.63;;;13.27;50.87
14383;BME280;7275;50.328;8.720;2022-11-21T08:32:35;98636.19;;;13.32;51.07
14383;BME280;7275;50.328;8.720;2022-11-21T08:35:03;98628.03;;;13.35;51.08
14383;BME280;7275;50.328;8.720;2022-11-21T08:37:30;98631.13;;;13.42;50.92
14383;BME280;7275;50.328;8.720;2022-11-21T08:39:58;98631.56;;;13.48;50.97
14383;BME280;7275;50.328;8.720;2022-11-21T08:42:26;98628.63;;;13.53;50.84
14383;BME280;7275;50.328;8.720;2022-11-21T08:44:53;98638.72;;;13.60;50.87
14383;BME280;7275;50.328;8.720;2022-11-21T08:47:21;98634.50;;;13.71;50.81
14383;BME280;7275;50.328;8.720;2022-11-21T08:49:49;98630.41;;;13.92;50.97
14383;BME280;7275;50.328;8.720;2022-11-21T08:52:17;98625.66;;;14.09;50.89
14383;BME280;7275;50.328;8.720;2022-11-21T08:54:45;98613.97;;;14.24;50.67
14383;BME280;7275;50.328;8.720;2022-11-21T08:57:12;98623.47;;;14.41;50.33
14383;BME280;7275;50.328;8.720;2022-11-21T08:59:40;98615.50;;;14.77;50.91
14383;BME280;7275;50.328;8.720;2022-11-21T09:02:09;98610.09;;;15.15;50.74
14383;BME280;7275;50.328;8.720;2022-11-21T09:04:37;98611.03;;;15.38;50.15
14383;BME280;7275;50.328;8.720;2022-11-21T09:07:06;98608.03;;;15.89;50.50
14383;BME280;7275;50.328;8.720;2022-11-21T09:09:35;98605.50;;;16.56;50.65
14383;BME280;7275;50.328;8.720;2022-11-21T09:12:02;98593.66;;;17.03;49.25
14383;BME280;7275;50.328;8.720;2022-11-21T09:14:30;98574.97;;;17.14;48.27
14383;BME280;7275;50.328;8.720;2022-11-21T09:17:15;98582.63;;;17.07;47.69
14383;BME280;7275;50.328;8.720;2022-11-21T09:20:00;98584.97;;;16.90;47.24
14383;BME280;7275;50.328;8.720;2022-11-21T09:22:29;98590.56;;;16.75;47.16
14383;BME280;7275;50.328;8.720;2022-11-21T09:24:57;98598.94;;;16.60;47.08
14383;BME280;7275;50.328;8.720;2022-11-21T09:27:24;98604.72;;;16.43;46.89
14383;BME280;7275;50.328;8.720;2022-11-21T09:29:52;98609.56;;;16.27;47.08
14383;BME280;7275;50.328;8.720;2022-11-21T09:32:20;98603.97;;;16.08;46.99
14383;BME280;7275;50.328;8.720;2022-11-21T09:34:47;98617.84;;;15.89;46.96
14383;BME280;7275;50.328;8.720;2022-11-21T09:37:15;98611.97;;;15.73;47.21
14383;BME280;7275;50.328;8.720;2022-11-21T09:39:44;98611.19;;;15.60;47.48
14383;BME280;7275;50.328;8.720;2022-11-21T09:42:28;98626.50;;;15.45;47.58
14383;BME280;7275;50.328;8.720;2022-11-21T09:45:05;98619.75;;;15.29;47.79
14383;BME280;7275;50.328;8.720;2022-11-21T09:47:36;98617.22;;;15.14;48.05
14383;BME280;7275;50.328;8.720;2022-11-21T09:50:21;98615.38;;;15.04;48.23
14383;BME280;7275;50.328;8.720;2022-11-21T09:52:55;98615.44;;;15.02;48.62
14383;BME280;7275;50.328;8.720;2022-11-21T09:55:30;98610.03;;;15.04;48.75
14383;BME280;7275;50.328;8.720;2022-11-21T09:58:04;98615.13;;;15.07;48.72
14383;BME280;7275;50.328;8.720;2022-11-21T10:00:32;98620.63;;;15.16;48.84
14383;BME280;7275;50.328;8.720;2022-11-21T10:03:00;98612.22;;;15.46;49.34
14383;BME280;7275;50.328;8.720;2022-11-21T10:05:35;98591.50;;;16.30;50.26
14383;BME280;7275;50.328;8.720;2022-11-21T10:08:10;98591.00;;;17.45;49.98
14383;BME280;7275;50.328;8.720;2022-11-21T10:10:52;98585.38;;;18.63;49.39
14383;BME280;7275;50.328;8.720;2022-11-21T10:13:31;98574.59;;;19.42;48.42
14383;BME280;7275;50.328;8.720;2022-11-21T10:16:08;98567.09;;;20.03;47.19
14383;BME280;7275;50.328;8.720;2022-11-21T10:18:56;98559.75;;;20.61;46.41
14383;BME280;7275;50.328;8.720;2022-11-21T10:21:39;98556.63;;;21.20;45.23
14383;BME280;7275;50.328;8.720;2022-11-21T10:24:21;98554.44;;;21.51;44.69
14383;BME280;7275;50.328;8.720;2022-11-21T10:26:59;98548.97;;;21.78;43.97
14383;BME280;7275;50.328;8.720;2022-11-21T10:29:31;98551.09;;;22.35;43.71
14383;BME280;7275;50.328;8.720;2022-11-21T10:32:03;98548.72;;;22.99;42.85
14383;BME280;7275;50.328;8.720;2022-11-21T10:34:37;98548.22;;;23.70;41.97
14383;BME280;7275;50.328;8.720;2022-11-21T10:37:12;98549.25;;;24.25;40.99
14383;BME280;7275;50.328;8.720;2022-11-21T10:39:43;98548.00;;;24.52;40.33
14383;BME280;7275;50.328;8.720;2022-11-21T10:42:28;98540.00;;;24.83;39.48
14383;BME280;7275;50.328;8.720;2022-11-21T10:44:58;98538.63;;;24.87;38.85
14383;BME280;7275;50.328;8.720;2022-11-21T10:47:46;98531.53;;;24.86;39.13
14383;BME280;7275;50.328;8.720;2022-11-21T10:50:22;98528.84;;;24.86;38.50
14383;BME280;7275;50.328;8.720;2022-11-21T10:53:00;98529.28;;;24.50;37.60
14383;BME280;7275;50.328;8.720;2022-11-21T10:55:57;98529.16;;;23.96;37.56
14383;BME280;7275;50.328;8.720;2022-11-21T10:58:40;98527.78;;;23.43;37.88
14383;BME280;7275;50.328;8.720;2022-11-21T11:01:20;98512.13;;;23.47;38.54
14383;BME280;7275;50.328;8.720;2022-11-21T11:04:04;98508.09;;;23.75;38.60
14383;BME280;7275;50.328;8.720;2022-11-21T11:06:52;98508.41;;;23.64;38.17
14383;BME280;7275;50.328;8.720;2022-11-21T11:09:24;98506.22;;;23.43;37.64
14383;BME280;7275;50.328;8.720;2022-11-21T11:12:18;98506.38;;;23.34;38.18
14383;BME280;7275;50.328;8.720;2022-11-21T11:14:50;98509.00;;;23.10;37.57
14383;BME280;7275;50.328;8.720;2022-11-21T11:17:26;98500.19;;;22.58;37.73
14383;BME280;7275;50.328;8.720;2022-11-21T11:20:03;98509.91;;;21.91;37.54
14383;BME280;7275;50.328;8.720;2022-11-21T11:22:31;98495.03;;;21.26;37.82
14383;BME280;7275;50.328;8.720;2022-11-21T11:25:02;98515.69;;;20.81;38.53
14383;BME280;7275;50.328;8.720;2022-11-21T11:27:30;98499.97;;;20.59;39.33
14383;BME280;7275;50.328;8.720;2022-11-21T11:30:05;98491.75;;;20.88;40.21
14383;BME280;7275;50.328;8.720;2022-11-21T11:32:38;98475.63;;;21.15;39.65
14383;BME280;7275;50.328;8.720;2022-11-21T11:35:18;98482.13;;;21.12;39.07
14383;BME280;7275;50.328;8.720;2022-11-21T11:37:56;98470.38;;;21.13;39.29
14383;BME280;7275;50.328;8.720;2022-11-21T11:40:29;98470.97;;;20.90;38.97
14383;BME280;7275;50.328;8.720;2022-11-21T11:43:13;98474.47;;;20.45;38.70
14383;BME280;7275;50.328;8.720;2022-11-21T11:46:25;98473.50;;;19.90;39.13
14383;BME280;7275;50.328;8.720;2022-11-21T11:49:32;98460.31;;;19.60;39.76
14383;BME280;7275;50.328;8.720;2022-11-21T11:52:25;98460.69;;;20.31;40.79
14383;BME280;7275;50.328;8.720;2022-11-21T11:54:57;98448.13;;;20.76;40.35
14383;BME280;7275;50.328;8.720;2022-11-21T11:57:29;98448.50;;;20.63;39.63
14383;BME280;7275;50.328;8.720;2022-11-21T12:00:05;98448.25;;;20.30;39.15
14383;BME280;7275;50.328;8.720;2022-11-21T12:02:45;98456.81;;;20.06;39.97
14383;BME280;7275;50.328;8.720;2022-11-21T12:05:20;98449.66;;;19.87;39.84
14383;BME280;7275;50.328;8.720;2022-11-21T12:08:04;98445.63;;;19.64;39.77
14383;BME280;7275;50.328;8.720;2022-11-21T12:10:56;98434.34;;;19.32;40.01
14383;BME280;7275;50.328;8.720;2022-11-21T12:13:51;98430.59;;;19.35;40.65
14383;BME280;7275;50.328;8.720;2022-11-21T12:16:24;98425.16;;;19.73;40.80
14383;BME280;7275;50.328;8.720;2022-11-21T12:18:58;98424.09;;;19.93;40.43
14383;BME280;7275;50.328;8.720;2022-11-21T12:21:28;98417.81;;;19.75;40.26
14383;BME280;7275;50.328;8.720;2022-11-21T12:23:57;98434.25;;;19.43;39.60
14383;BME280;7275;50.328;8.720;2022-11-21T12:26:32;98427.47;;;19.01;39.76
14383;BME280;7275;50.328;8.720;2022-11-21T12:29:12;98425.28;;;18.57;40.00
14383;BME280;7275;50.328;8.720;2022-11-21T12:31:56;98422.91;;;18.14;40.53
14383;BME280;7275;50.328;8.720;2022-11-21T12:34:37;98412.91;;;17.76;40.67
14383;BME280;7275;50.328;8.720;2022-11-21T12:37:18;98415.78;;;17.43;41.09
14383;BME280;7275;50.328;8.720;2022-11-21T12:39:58;98415.59;;;17.14;41.21
14383;BME280;7275;50.328;8.720;2022-11-21T12:42:30;98411.47;;;16.90;41.51
14383;BME280;7275;50.328;8.720;2022-11-21T12:45:28;98397.13;;;16.59;41.87
14383;BME280;7275;50.328;8.720;2022-11-21T12:48:13;98396.44;;;16.35;42.10
14383;BME280;7275;50.328;8.720;2022-11-21T12:51:19;98392.38;;;16.09;42.35
14383;BME280;7275;50.328;8.720;2022-11-21T12:54:18;98394.44;;;15.94;42.87
14383;BME280;7275;50.328;8.720;2022-11-21T12:57:04;98379.19;;;15.85;43.08
14383;BME280;7275;50.328;8.720;2022-11-21T12:59:41;98387.94;;;15.87;43.09
14383;BME280;7275;50.328;8.720;2022-11-21T13:02:21;98386.94;;;15.99;43.66
14383;BME280;7275;50.328;8.720;2022-11-21T13:04:52;98382.91;;;16.16;43.68
14383;BME280;7275;50.328;8.720;2022-11-21T13:07:24;98382.91;;;16.27;43.63
14383;BME280;7275;50.328;8.720;2022-11-21T13:09:56;98379.13;;;16.29;43.43
14383;BME280;7275;50.328;8.720;2022-11-21T13:12:33;98359.84;;;16.26;43.47
14383;BME280;7275;50.328;8.720;2022-11-21T13:15:14;98371.75;;;16.22;43.19
14383;BME280;7275;50.328;8.720;2022-11-21T13:17:48;98367.88;;;16.15;43.13
14383;BME280;7275;50.328;8.720;2022-11-21T13:20:22;98374.91;;;16.05;43.04
14383;BME280;7275;50.328;8.720;2022-11-21T13:22:56;98365.97;;;15.94;43.16
14383;BME280;7275;50.328;8.720;2022-11-21T13:25:38;98363.22;;;15.85;43.30
14383;BME280;7275;50.328;8.720;2022-11-21T13:28:31;98361.63;;;15.71;43.11
14383;BME280;7275;50.328;8.720;2022-11-21T13:31:01;98362.47;;;15.61;43.28
14383;BME280;7275;50.328;8.720;2022-11-21T13:33:51;98360.56;;;15.52;43.50
14383;BME280;7275;50.328;8.720;2022-11-21T13:36:41;98357.53;;;15.45;43.66